Time;durP1;ratioP1;P1;durP2;ratioP2;P2;SDS_P1;SDS_P2;PMS_P1;PMS_P2;Temp;Humidity;BMP_temperature;BMP_pressure;BME280_temperature;BME280_humidity;BME280_pressure;Samples;Min_cycle;Max_cycle;Signal;HPM_P1;HPM_P2
2021/09/23 00:01:29;;;;;;;12.40;7.90;;;;;;;9.26;90.40;100878.34;5115583;28;20050;-80
2021/09/23 00:04:04;;;;;;;11.25;7.82;;;;;;;9.10;92.23;100879.03;5115811;28;20519;-80
2021/09/23 00:06:33;;;;;;;11.93;8.07;;;;;;;9.03;93.23;100884.69;5115652;28;20093;-80
2021/09/23 00:09:02;;;;;;;11.70;8.45;;;;;;;9.08;92.24;100882.72;5115579;28;20055;-80
2021/09/23 00:11:30;;;;;;;12.15;8.63;;;;;;;9.28;90.41;100885.34;5114967;28;20663;-79
2021/09/23 00:14:00;;;;;;;11.85;7.80;;;;;;;9.14;91.84;100891.28;5115060;28;20135;-78
2021/09/23 00:16:29;;;;;;;12.32;8.23;;;;;;;8.99;92.86;100894.63;5115124;28;20471;-78
2021/09/23 00:18:57;;;;;;;12.38;8.70;;;;;;;8.85;94.37;100884.56;5115123;28;20044;-78
2021/09/23 00:21:27;;;;;;;13.90;9.05;;;;;;;8.75;95.11;100890.34;5114890;28;20182;-78
2021/09/23 00:23:55;;;;;;;12.75;8.38;;;;;;;8.66;95.84;100896.03;5115024;28;20118;-79
2021/09/23 00:26:23;;;;;;;12.18;8.20;;;;;;;8.63;96.40;100896.19;5114846;28;20426;-79
2021/09/23 00:28:52;;;;;;;12.52;8.48;;;;;;;8.62;97.29;100899.78;5096885;28;20055;-79
2021/09/23 00:31:20;;;;;;;13.85;8.35;;;;;;;8.55;98.12;100897.34;5114967;28;20047;-79
2021/09/23 00:33:48;;;;;;;12.70;8.95;;;;;;;8.50;99.88;100907.34;5114848;28;20477;-79
2021/09/23 00:36:17;;;;;;;13.90;9.10;;;;;;;8.45;100.00;100913.75;5114668;28;20082;-79
2021/09/23 00:38:47;;;;;;;16.42;9.57;;;;;;;8.42;99.85;100914.75;5115131;28;20039;-78
2021/09/23 00:41:15;;;;;;;14.75;8.75;;;;;;;8.37;100.00;100914.06;5114465;28;20047;-80
2021/09/23 00:43:45;;;;;;;13.68;8.65;;;;;;;8.42;98.93;100920.06;5115256;28;20043;-79
2021/09/23 00:46:14;;;;;;;12.90;8.80;;;;;;;8.50;97.42;100914.44;5114635;28;20130;-86
2021/09/23 00:48:45;;;;;;;12.40;8.63;;;;;;;8.60;95.85;100919.31;5114820;28;20043;-79
2021/09/23 00:51:17;;;;;;;12.68;8.73;;;;;;;8.73;96.00;100913.47;5114330;28;20406;-79
2021/09/23 00:53:48;;;;;;;12.20;8.50;;;;;;;8.71;95.40;100920.66;5114698;28;20101;-79
2021/09/23 00:56:16;;;;;;;12.95;8.70;;;;;;;8.72;93.81;100906.44;5114497;28;20044;-79
2021/09/23 00:58:45;;;;;;;16.40;9.73;;;;;;;8.66;94.67;100912.84;5114436;28;20047;-78
2021/09/23 01:01:13;;;;;;;13.40;9.18;;;;;;;8.77;94.30;100909.75;5114352;28;20047;-79
2021/09/23 01:03:42;;;;;;;14.02;9.15;;;;;;;8.71;94.18;100920.66;5114363;28;20047;-79
2021/09/23 01:06:10;;;;;;;13.90;9.32;;;;;;;8.59;94.47;100912.28;5114266;28;20047;-79
2021/09/23 01:08:39;;;;;;;14.07;9.15;;;;;;;8.50;94.79;100915.31;5114346;28;20086;-80
2021/09/23 01:11:08;;;;;;;14.80;9.32;;;;;;;8.53;94.82;100917.84;5113994;28;20042;-75
2021/09/23 01:13:36;;;;;;;15.45;9.85;;;;;;;8.68;94.84;100916.31;5113704;28;20521;-73
2021/09/23 01:16:06;;;;;;;13.80;9.10;;;;;;;8.77;94.19;100915.06;5113440;28;20044;-75
2021/09/23 01:18:34;;;;;;;14.30;9.73;;;;;;;8.81;93.21;100901.59;5113589;28;20109;-75
2021/09/23 01:21:06;;;;;;;16.25;9.82;;;;;;;8.74;93.82;100912.53;5113957;28;20047;-75
2021/09/23 01:23:36;;;;;;;13.93;9.98;;;;;;;8.76;93.32;100908.03;5095501;28;20130;-75
2021/09/23 01:26:07;;;;;;;14.85;9.25;;;;;;;8.69;93.38;100907.44;5113997;28;20054;-75
2021/09/23 01:28:35;;;;;;;14.70;9.90;;;;;;;8.75;93.45;100903.63;5113466;28;20043;-76
2021/09/23 01:31:04;;;;;;;13.95;9.90;;;;;;;8.72;93.51;100901.97;5113704;28;20050;-75
2021/09/23 01:33:33;;;;;;;15.77;9.98;;;;;;;8.60;94.04;100887.41;5113102;28;20055;-75
2021/09/23 01:36:01;;;;;;;16.90;10.20;;;;;;;8.65;93.93;100896.97;5113651;28;20044;-80
2021/09/23 01:38:31;;;;;;;15.13;10.18;;;;;;;8.54;93.99;100892.97;5113171;28;20048;-80
2021/09/23 01:41:00;;;;;;;17.42;10.75;;;;;;;8.45;94.38;100877.41;5113437;28;20093;-81
2021/09/23 01:43:32;;;;;;;15.82;10.95;;;;;;;8.44;95.00;100891.63;5113218;28;20046;-81
2021/09/23 01:46:01;;;;;;;17.60;11.27;;;;;;;8.52;94.61;100889.53;5113370;28;20489;-77
2021/09/23 01:48:29;;;;;;;19.08;11.65;;;;;;;8.48;94.78;100887.03;5113084;28;20040;-78
2021/09/23 01:50:57;;;;;;;17.58;11.23;;;;;;;8.51;94.68;100887.78;5113544;28;20051;-75
2021/09/23 01:53:27;;;;;;;17.77;11.52;;;;;;;8.34;95.71;100887.56;5113324;28;20042;-76
2021/09/23 01:55:56;;;;;;;16.85;11.70;;;;;;;8.36;95.38;100879.56;5113274;28;20050;-76
2021/09/23 01:58:25;;;;;;;19.10;12.18;;;;;;;8.41;95.02;100882.91;5113157;28;20050;-76
2021/09/23 02:00:53;;;;;;;17.38;11.07;;;;;;;8.53;94.62;100877.94;5113201;28;20401;-76
2021/09/23 02:03:21;;;;;;;19.30;12.10;;;;;;;8.77;93.02;100877.81;5113061;28;20048;-78
2021/09/23 02:05:50;;;;;;;18.23;12.07;;;;;;;8.42;94.58;100872.22;5094955;28;20528;-78
2021/09/23 02:08:18;;;;;;;20.05;12.07;;;;;;;8.17;96.49;100879.41;5113501;28;20446;-84
2021/09/23 02:10:47;;;;;;;20.05;12.57;;;;;;;8.13;97.50;100880.47;5113569;28;20043;-87
2021/09/23 02:13:16;;;;;;;19.08;12.35;;;;;;;8.48;95.06;100882.56;5113328;28;20043;-83
2021/09/23 02:15:45;;;;;;;19.55;12.63;;;;;;;8.29;95.85;100882.44;5113313;28;20040;-85
2021/09/23 02:18:13;;;;;;;19.73;12.32;;;;;;;8.32;96.16;100886.78;5113546;28;20050;-85
2021/09/23 02:20:41;;;;;;;19.08;11.43;;;;;;;8.38;96.02;100885.69;5112769;28;20047;-78
2021/09/23 02:23:10;;;;;;;19.48;11.38;;;;;;;8.46;95.27;100876.47;5113430;28;20479;-78
2021/09/23 02:25:39;;;;;;;18.20;12.25;;;;;;;8.48;94.82;100876.41;5113583;28;20044;-78
2021/09/23 02:28:07;;;;;;;19.15;12.40;;;;;;;8.45;94.90;100882.72;5117180;28;20069;-76
2021/09/23 02:30:37;;;;;;;19.25;12.55;;;;;;;8.41;95.10;100875.81;5116737;28;20055;-75
2021/09/23 02:33:05;;;;;;;18.33;11.50;;;;;;;8.39;95.25;100885.63;5117042;28;20089;-76
2021/09/23 02:35:34;;;;;;;20.20;12.70;;;;;;;8.35;95.27;100883.16;5116693;28;20404;-78
2021/09/23 02:38:02;;;;;;;18.60;11.68;;;;;;;8.41;95.55;100883.78;5117083;28;20043;-78
2021/09/23 02:40:30;;;;;;;19.67;12.43;;;;;;;8.25;96.15;100882.63;5116752;28;20051;-78
2021/09/23 02:42:58;;;;;;;21.05;12.65;;;;;;;8.23;96.22;100882.69;5117123;28;20040;-78
2021/09/23 02:45:27;;;;;;;20.27;12.45;;;;;;;8.10;97.09;100877.91;5116654;28;20387;-78
2021/09/23 02:47:56;;;;;;;19.48;12.35;;;;;;;7.99;97.86;100883.66;5116748;28;20046;-79
2021/09/23 02:50:24;;;;;;;21.63;12.95;;;;;;;7.93;98.59;100881.28;5116405;28;20040;-78
2021/09/23 02:52:53;;;;;;;20.42;12.13;;;;;;;7.88;99.55;100876.13;5116843;28;20079;-79
2021/09/23 02:55:22;;;;;;;19.20;12.70;;;;;;;8.03;98.19;100875.53;5116456;28;20556;-79
2021/09/23 02:57:52;;;;;;;19.60;12.25;;;;;;;7.92;99.36;100880.41;5116755;28;20089;-75
2021/09/23 03:00:20;;;;;;;21.10;13.15;;;;;;;7.83;99.98;100883.41;5098686;28;20474;-75
2021/09/23 03:02:48;;;;;;;20.17;12.57;;;;;;;7.78;100.00;100884.50;5116324;28;20055;-75
2021/09/23 03:05:18;;;;;;;20.77;12.85;;;;;;;7.68;100.00;100874.25;5116651;28;20116;-78
2021/09/23 03:07:47;;;;;;;19.40;12.57;;;;;;;7.73;100.00;100874.09;5116659;28;20048;-78
2021/09/23 03:10:15;;;;;;;20.50;12.15;;;;;;;7.69;100.00;100872.44;5116527;28;20126;-78
2021/09/23 03:12:43;;;;;;;18.30;12.30;;;;;;;7.63;100.00;100878.00;5116040;28;20409;-77
2021/09/23 03:15:12;;;;;;;22.15;12.80;;;;;;;7.69;100.00;100869.78;5116260;28;20039;-78
2021/09/23 03:17:41;;;;;;;22.58;13.38;;;;;;;7.61;100.00;100867.44;5116134;28;20118;-78
2021/09/23 03:20:10;;;;;;;21.35;13.35;;;;;;;7.60;100.00;100870.16;5116384;28;20043;-81
2021/09/23 03:22:39;;;;;;;18.83;12.50;;;;;;;7.52;100.00;100870.44;5115736;28;20059;-82
2021/09/23 03:25:09;;;;;;;20.02;13.18;;;;;;;7.47;100.00;100862.66;5116138;28;20406;-78
2021/09/23 03:27:37;;;;;;;22.35;13.20;;;;;;;7.43;100.00;100866.34;5115675;28;20047;-78
2021/09/23 03:30:06;;;;;;;21.58;13.10;;;;;;;7.36;100.00;100856.03;5116121;28;20135;-78
2021/09/23 03:32:35;;;;;;;19.58;12.85;;;;;;;7.38;100.00;100865.66;5115686;28;20114;-78
2021/09/23 03:35:04;;;;;;;22.77;13.52;;;;;;;7.33;100.00;100856.13;5116024;28;20039;-76
2021/09/23 03:37:32;;;;;;;21.55;12.45;;;;;;;7.30;100.00;100861.53;5115133;28;20039;-76
2021/09/23 03:40:04;;;;;;;21.42;13.10;;;;;;;7.26;100.00;100858.16;5116312;28;20042;-76
2021/09/23 03:42:33;;;;;;;21.58;12.90;;;;;;;7.21;100.00;100860.09;5116136;28;20044;-78
2021/09/23 03:45:02;;;;;;;22.20;13.18;;;;;;;7.23;100.00;100858.25;5115648;28;20500;-78
2021/09/23 03:47:30;;;;;;;19.25;12.15;;;;;;;7.18;100.00;100853.13;5115343;28;20047;-78
2021/09/23 03:49:59;;;;;;;19.00;12.70;;;;;;;7.17;100.00;100861.13;5115597;28;20505;-76
2021/09/23 03:52:28;;;;;;;22.55;13.55;;;;;;;7.15;100.00;100857.69;5115176;28;20039;-76
2021/09/23 03:54:56;;;;;;;21.10;13.50;;;;;;;7.15;100.00;100852.38;5115813;28;20138;-76
2021/09/23 03:57:27;;;;;;;23.73;13.90;;;;;;;7.11;100.00;100846.28;5115522;28;20078;-82
2021/09/23 03:59:55;;;;;;;22.73;13.40;;;;;;;7.08;100.00;100849.06;5115692;28;20097;-77
2021/09/23 04:02:24;;;;;;;20.92;13.35;;;;;;;7.07;100.00;100843.81;5115678;28;20075;-79
2021/09/23 04:04:53;;;;;;;22.63;13.77;;;;;;;7.03;100.00;100847.50;5115521;28;20408;-76
2021/09/23 04:07:22;;;;;;;22.35;13.75;;;;;;;7.05;100.00;100857.16;5115360;28;20127;-75
2021/09/23 04:09:50;;;;;;;20.85;13.23;;;;;;;7.09;100.00;100850.81;5114982;28;20044;-74
2021/09/23 04:12:19;;;;;;;21.70;13.68;;;;;;;7.04;100.00;100855.38;5115433;28;20089;-75
2021/09/23 04:14:49;;;;;;;21.58;13.15;;;;;;;7.07;100.00;100849.13;5115169;28;20114;-75
2021/09/23 04:17:18;;;;;;;23.42;14.05;;;;;;;7.09;100.00;100847.28;5115581;28;20036;-79
2021/09/23 04:19:47;;;;;;;20.65;13.50;;;;;;;7.07;100.00;100851.78;5114986;28;20096;-79
2021/09/23 04:22:15;;;;;;;23.58;13.73;;;;;;;7.08;100.00;100840.25;5115429;28;20035;-80
2021/09/23 04:24:44;;;;;;;22.15;14.10;;;;;;;7.07;100.00;100849.13;5115050;28;20071;-79
2021/09/23 04:27:12;;;;;;;23.52;13.43;;;;;;;7.03;100.00;100848.34;5115387;28;20537;-79
2021/09/23 04:29:43;;;;;;;23.00;14.38;;;;;;;7.04;100.00;100844.78;5114560;28;20565;-79
2021/09/23 04:32:13;;;;;;;22.65;14.10;;;;;;;7.10;100.00;100855.19;5115326;28;20055;-80
2021/09/23 04:34:41;;;;;;;24.83;14.57;;;;;;;7.11;100.00;100854.25;5115505;28;20139;-79
2021/09/23 04:37:09;;;;;;;26.58;13.82;;;;;;;7.17;100.00;100850.53;5114766;28;20447;-78
2021/09/23 04:39:36;;;;;;;24.75;13.75;;;;;;;7.21;100.00;100854.78;5114362;28;20044;-76
2021/09/23 04:42:05;;;;;;;24.20;14.02;;;;;;;7.30;100.00;100858.88;5114592;28;20085;-79
2021/09/23 04:44:40;;;;;;;24.40;14.30;;;;;;;7.42;100.00;100859.28;5115015;28;20126;-75
2021/09/23 04:47:09;;;;;;;23.55;14.38;;;;;;;7.56;100.00;100860.56;5114376;28;20050;-75
2021/09/23 04:49:39;;;;;;;24.05;13.93;;;;;;;7.68;100.00;100858.31;5113400;28;20036;-78
2021/09/23 04:52:07;;;;;;;23.25;14.02;;;;;;;7.81;100.00;100856.03;5114530;28;20055;-76
2021/09/23 04:54:36;;;;;;;24.35;14.20;;;;;;;7.93;100.00;100852.91;5114285;28;20134;-75
2021/09/23 04:57:04;;;;;;;19.02;12.88;;;;;;;8.08;100.00;100853.22;5114578;28;20036;-75
2021/09/23 04:59:36;;;;;;;20.10;12.73;;;;;;;8.31;100.00;100854.03;5114252;28;20043;-75
2021/09/23 05:02:05;;;;;;;18.58;11.73;;;;;;;8.67;97.30;100850.75;5114144;28;20039;-74
2021/09/23 05:04:33;;;;;;;19.23;11.98;;;;;;;8.71;97.11;100846.19;5095674;28;20047;-75
2021/09/23 05:07:03;;;;;;;22.00;12.57;;;;;;;8.82;96.70;100843.94;5114112;28;20046;-75
2021/09/23 05:09:33;;;;;;;20.00;12.35;;;;;;;8.97;95.12;100840.56;5113412;28;20059;-75
2021/09/23 05:12:03;;;;;;;19.50;12.18;;;;;;;8.87;95.29;100842.78;5113835;28;20067;-77
2021/09/23 05:14:32;;;;;;;20.77;12.45;;;;;;;8.92;96.15;100839.94;5113609;28;20097;-74
2021/09/23 05:17:00;;;;;;;20.27;12.07;;;;;;;9.17;95.06;100843.25;5114019;28;20093;-79
2021/09/23 05:19:28;;;;;;;18.65;12.23;;;;;;;9.32;93.88;100847.00;5113813;28;20043;-79
2021/09/23 05:21:57;;;;;;;19.92;11.85;;;;;;;9.18;93.94;100858.28;5113437;28;20074;-77
2021/09/23 05:24:27;;;;;;;19.90;11.95;;;;;;;9.16;94.42;100862.78;5113669;28;20547;-76
2021/09/23 05:26:56;;;;;;;19.85;12.55;;;;;;;9.14;94.08;100861.13;5113888;28;20043;-76
2021/09/23 05:29:24;;;;;;;18.13;11.68;;;;;;;9.16;94.02;100862.78;5113798;28;20398;-73
2021/09/23 05:31:53;;;;;;;18.70;11.82;;;;;;;9.22;93.30;100863.44;5113379;28;20075;-73
2021/09/23 05:34:21;;;;;;;22.75;12.68;;;;;;;9.26;93.56;100857.91;5113590;28;20137;-77
2021/09/23 05:36:49;;;;;;;19.23;11.70;;;;;;;9.51;92.67;100855.00;5113271;28;20050;-78
2021/09/23 05:39:18;;;;;;;19.15;12.18;;;;;;;9.47;92.78;100864.09;5113135;28;20043;-78
2021/09/23 05:41:47;;;;;;;19.15;12.63;;;;;;;9.57;91.93;100862.72;5113184;28;20402;-74
2021/09/23 05:44:22;;;;;;;17.40;11.55;;;;;;;9.75;91.32;100869.84;5113253;28;20127;-73
2021/09/23 05:46:51;;;;;;;18.35;12.35;;;;;;;9.73;91.64;100866.38;5113035;28;20122;-73
2021/09/23 05:49:20;;;;;;;21.00;12.38;;;;;;;9.70;91.76;100866.53;5113101;28;20043;-74
2021/09/23 05:51:48;;;;;;;22.40;13.13;;;;;;;9.82;91.59;100864.22;5112728;28;20108;-74
2021/09/23 05:54:17;;;;;;;19.55;11.88;;;;;;;9.87;91.78;100862.22;5112840;28;20039;-79
2021/09/23 05:56:47;;;;;;;19.20;12.10;;;;;;;9.98;90.68;100859.91;5112298;28;20035;-79
2021/09/23 05:59:16;;;;;;;20.40;12.93;;;;;;;9.99;91.50;100861.63;5094789;28;20348;-76
2021/09/23 06:01:45;;;;;;;19.75;13.15;;;;;;;10.05;91.05;100864.00;5112361;28;20428;-77
2021/09/23 06:04:13;;;;;;;19.17;12.20;;;;;;;10.17;89.44;100862.53;5113253;28;20120;-72
2021/09/23 06:06:42;;;;;;;20.35;12.57;;;;;;;10.19;89.34;100858.00;5112966;28;20047;-76
2021/09/23 06:09:10;;;;;;;16.90;11.88;;;;;;;10.17;89.23;100859.88;5113253;28;20050;-77
2021/09/23 06:11:39;;;;;;;21.40;12.43;;;;;;;10.11;89.69;100861.03;5113230;28;20040;-76
2021/09/23 06:14:09;;;;;;;20.38;12.88;;;;;;;10.17;90.78;100865.22;5113254;28;20043;-76
2021/09/23 06:16:38;;;;;;;19.52;13.13;;;;;;;10.33;90.63;100855.56;5113257;28;20086;-77
2021/09/23 06:19:07;;;;;;;22.92;13.50;;;;;;;10.46;89.76;100855.81;5113014;28;20044;-76
2021/09/23 06:21:35;;;;;;;24.52;14.15;;;;;;;10.62;89.76;100851.44;5112921;28;20142;-76
2021/09/23 06:24:04;;;;;;;24.98;14.95;;;;;;;10.62;89.63;100839.91;5112935;28;20035;-76
2021/09/23 06:26:32;;;;;;;23.77;14.07;;;;;;;10.66;89.46;100855.66;5113906;28;20073;-75
2021/09/23 06:29:01;;;;;;;19.88;13.57;;;;;;;10.73;88.84;100841.06;5113807;28;20402;-77
2021/09/23 06:31:32;;;;;;;24.50;14.65;;;;;;;10.88;87.82;100847.41;5113261;28;20113;-76
2021/09/23 06:34:02;;;;;;;25.13;15.43;;;;;;;11.04;87.67;100843.00;5113196;28;20491;-75
2021/09/23 06:36:33;;;;;;;21.38;14.70;;;;;;;11.21;85.60;100852.78;5112987;28;20048;-75
2021/09/23 06:39:02;;;;;;;25.45;15.27;;;;;;;11.28;85.15;100853.31;5112869;28;20048;-77
2021/09/23 06:41:30;;;;;;;20.00;12.50;;;;;;;11.24;82.70;100855.28;5112669;28;20048;-75
2021/09/23 06:44:00;;;;;;;22.55;12.93;;;;;;;11.54;82.48;100863.44;5112612;28;20505;-75
2021/09/23 06:46:28;;;;;;;19.48;11.90;;;;;;;11.75;79.52;100861.41;5112753;28;20486;-75
2021/09/23 06:49:00;;;;;;;21.73;12.00;;;;;;;11.66;79.59;100836.06;5112610;28;20426;-75
2021/09/23 06:51:28;;;;;;;22.48;11.75;;;;;;;11.53;81.04;100845.69;5112818;28;20085;-75
2021/09/23 06:54:08;;;;;;;15.63;10.43;;;;;;;11.56;79.98;100836.66;5112875;28;20447;-75
2021/09/23 06:56:36;;;;;;;17.33;10.23;;;;;;;11.57;79.02;100852.59;5112753;28;20048;-83
2021/09/23 06:59:04;;;;;;;15.65;9.18;;;;;;;11.54;78.55;100851.91;5112622;28;20479;-75
2021/09/23 07:01:34;;;;;;;14.20;9.73;;;;;;;11.61;79.16;100854.16;5112324;28;20061;-74
2021/09/23 07:04:05;;;;;;;13.65;9.25;;;;;;;11.75;78.42;100845.38;5114110;27;20047;-76
2021/09/23 07:06:33;;;;;;;13.80;8.85;;;;;;;11.81;77.45;100847.75;5127021;27;20537;-75
2021/09/23 07:09:01;;;;;;;14.50;9.23;;;;;;;11.77;78.86;100835.44;5134810;28;20050;-74
2021/09/23 07:11:30;;;;;;;11.77;7.10;;;;;;;11.93;76.55;100844.38;5114335;28;20055;-74
2021/09/23 07:13:59;;;;;;;14.98;8.40;;;;;;;11.78;78.56;100829.19;5113873;28;20048;-74
2021/09/23 07:16:27;;;;;;;13.52;9.07;;;;;;;11.73;79.42;100839.25;5117314;27;20047;-74
2021/09/23 07:18:56;;;;;;;12.55;8.18;;;;;;;11.78;79.09;100829.19;5115010;28;20057;-75
2021/09/23 07:21:25;;;;;;;12.77;7.32;;;;;;;12.01;79.96;100831.44;5114857;28;20055;-75
2021/09/23 07:23:55;;;;;;;12.00;6.88;;;;;;;11.98;80.83;100826.28;5114877;28;20074;-75
2021/09/23 07:26:24;;;;;;;13.60;8.15;;;;;;;12.09;78.84;100827.47;5115104;28;20066;-74
2021/09/23 07:28:52;;;;;;;14.82;7.53;;;;;;;12.22;80.44;100820.47;5114512;28;20131;-74
2021/09/23 07:31:22;;;;;;;10.77;6.70;;;;;;;12.36;78.53;100819.69;5115527;28;20379;-74
2021/09/23 07:33:50;;;;;;;12.40;7.13;;;;;;;12.38;79.27;100818.63;5115470;28;20039;-74
2021/09/23 07:36:19;;;;;;;11.30;6.60;;;;;;;12.39;80.66;100815.00;5097582;28;20071;-74
2021/09/23 07:38:49;;;;;;;10.55;6.68;;;;;;;12.48;80.12;100813.59;5115389;28;20465;-74
2021/09/23 07:41:17;;;;;;;10.85;6.93;;;;;;;12.43;79.56;100816.53;5115651;28;20137;-74
2021/09/23 07:43:45;;;;;;;10.70;6.93;;;;;;;12.67;79.75;100810.69;5115506;28;20039;-74
2021/09/23 07:46:14;;;;;;;10.07;6.43;;;;;;;12.69;80.66;100822.16;5115957;28;20482;-74
2021/09/23 07:48:42;;;;;;;10.05;6.25;;;;;;;12.69;80.12;100816.81;5115317;28;20047;-74
2021/09/23 07:51:10;;;;;;;10.35;6.38;;;;;;;12.80;78.72;100817.00;5115874;28;20040;-74
2021/09/23 07:53:39;;;;;;;10.95;6.38;;;;;;;13.00;78.77;100819.34;5115714;28;20126;-74
2021/09/23 07:56:08;;;;;;;9.63;6.43;;;;;;;12.97;79.82;100811.50;5115514;28;20044;-74
2021/09/23 07:58:41;;;;;;;10.95;6.43;;;;;;;13.05;80.27;100805.69;5115498;28;20043;-74
2021/09/23 08:01:10;;;;;;;12.52;6.30;;;;;;;13.02;79.27;100813.88;5115358;28;20050;-73
2021/09/23 08:03:39;;;;;;;11.15;6.40;;;;;;;13.29;77.19;100812.22;5097346;28;20108;-74
2021/09/23 08:06:08;;;;;;;10.50;6.85;;;;;;;13.22;77.55;100815.38;5115406;28;20075;-74
2021/09/23 08:08:36;;;;;;;11.68;7.07;;;;;;;13.31;78.88;100817.47;5115289;28;20043;-73
2021/09/23 08:11:04;;;;;;;11.00;6.63;;;;;;;13.29;79.09;100811.34;5115009;28;20494;-73
2021/09/23 08:13:34;;;;;;;10.68;6.80;;;;;;;13.26;78.26;100820.44;5115403;28;20031;-74
2021/09/23 08:16:05;;;;;;;8.63;5.53;;;;;;;13.43;79.91;100822.94;5115124;28;20040;-73
2021/09/23 08:18:33;;;;;;;9.23;6.13;;;;;;;13.67;79.60;100825.88;5115101;28;20130;-74
2021/09/23 08:21:02;;;;;;;8.85;4.80;;;;;;;13.71;78.18;100811.31;5114978;28;20046;-74
2021/09/23 08:23:30;;;;;;;8.00;5.07;;;;;;;13.66;79.03;100810.75;5096476;28;20509;-74
2021/09/23 08:26:16;;;;;;;6.75;4.25;;;;;;;14.03;77.69;100805.69;5115391;28;20046;-74
2021/09/23 08:28:46;;;;;;;6.00;3.88;;;;;;;13.91;77.69;100810.03;5114493;28;20040;-75
2021/09/23 08:31:16;;;;;;;6.60;3.90;;;;;;;14.04;77.23;100799.34;5114827;28;20052;-74
2021/09/23 08:33:45;;;;;;;8.20;4.20;;;;;;;14.05;77.64;100790.34;5114205;28;20069;-74
2021/09/23 08:36:14;;;;;;;7.95;4.05;;;;;;;14.18;78.02;100799.28;5114775;28;20119;-73
2021/09/23 08:38:45;;;;;;;6.47;3.47;;;;;;;14.32;77.83;100798.38;5114475;28;20040;-80
2021/09/23 08:41:14;;;;;;;7.35;3.50;;;;;;;14.38;75.79;100806.03;5113964;28;20044;-74
2021/09/23 08:43:42;;;;;;;7.40;3.20;;;;;;;14.32;75.16;100799.25;5114184;28;20065;-74
2021/09/23 08:46:12;;;;;;;5.60;3.25;;;;;;;14.39;75.19;100794.34;5113868;28;20039;-75
2021/09/23 08:48:40;;;;;;;5.43;3.20;;;;;;;14.47;74.33;100792.00;5113884;28;20116;-73
2021/09/23 08:51:09;;;;;;;6.32;3.92;;;;;;;14.53;74.19;100790.72;5113880;28;20408;-73
2021/09/23 08:53:39;;;;;;;5.25;3.58;;;;;;;14.60;74.80;100779.47;5113319;28;20067;-73
2021/09/23 08:56:12;;;;;;;5.82;3.53;;;;;;;14.74;74.40;100783.88;5112611;28;20063;-75
2021/09/23 08:58:40;;;;;;;7.40;3.53;;;;;;;14.71;74.30;100778.72;5113086;28;20093;-74
2021/09/23 09:01:13;;;;;;;5.32;2.90;;;;;;;14.85;71.80;100773.25;5113734;28;20147;-75
2021/09/23 09:03:43;;;;;;;5.90;3.00;;;;;;;14.84;70.93;100782.28;5113717;28;20053;-74
2021/09/23 09:06:14;;;;;;;4.63;3.20;;;;;;;14.75;71.78;100768.63;5113900;28;20056;-75
2021/09/23 09:08:43;;;;;;;4.93;2.90;;;;;;;15.00;71.35;100775.84;5114013;28;20046;-75
2021/09/23 09:11:13;;;;;;;6.53;3.20;;;;;;;14.99;71.18;100776.81;5113856;28;20039;-75
2021/09/23 09:13:43;;;;;;;7.35;3.08;;;;;;;14.99;72.51;100776.81;5113730;28;20044;-75
2021/09/23 09:16:15;;;;;;;6.28;3.00;;;;;;;15.23;68.91;100783.13;5113855;28;20444;-74
2021/09/23 09:18:50;;;;;;;5.35;3.22;;;;;;;15.36;68.95;100784.00;5113789;28;20409;-75
2021/09/23 09:21:20;;;;;;;6.53;3.40;;;;;;;15.46;67.80;100782.34;5113631;28;20044;-74
2021/09/23 09:23:55;;;;;;;6.22;3.15;;;;;;;15.56;69.23;100781.69;5113366;28;20039;-74
2021/09/23 09:26:31;;;;;;;6.10;3.42;;;;;;;15.61;67.72;100776.84;5113645;28;20085;-73
2021/09/23 09:29:02;;;;;;;4.78;3.17;;;;;;;15.60;69.19;100767.03;5113375;28;20048;-74
2021/09/23 09:31:31;;;;;;;6.95;3.30;;;;;;;15.98;67.24;100766.94;5113617;28;20039;-73
2021/09/23 09:34:03;;;;;;;6.38;2.90;;;;;;;16.31;65.30;100768.94;5113542;28;20438;-74
2021/09/23 09:36:34;;;;;;;10.02;3.80;;;;;;;16.45;65.68;100757.97;5113209;28;20493;-74
2021/09/23 09:39:05;;;;;;;5.88;2.85;;;;;;;16.54;63.73;100759.97;5113425;28;20044;-73
2021/09/23 09:41:37;;;;;;;6.80;2.90;;;;;;;16.57;62.79;100759.72;5113689;28;20043;-73
2021/09/23 09:44:09;;;;;;;5.38;2.58;;;;;;;16.40;61.88;100762.84;5113284;28;20448;-74
2021/09/23 09:46:41;;;;;;;6.05;2.88;;;;;;;16.37;62.38;100760.38;5113235;28;20444;-75
2021/09/23 09:49:10;;;;;;;6.45;3.20;;;;;;;16.50;62.89;100747.72;5113492;28;20077;-72
2021/09/23 09:51:40;;;;;;;8.52;3.20;;;;;;;16.66;62.31;100741.97;5113213;28;20546;-74
2021/09/23 09:54:10;;;;;;;5.18;2.80;;;;;;;16.77;61.78;100749.25;5113288;28;20043;-74
2021/09/23 09:56:40;;;;;;;4.60;2.20;;;;;;;16.66;60.39;100747.38;5113366;28;20052;-74
2021/09/23 09:59:13;;;;;;;7.63;2.70;;;;;;;16.70;59.96;100751.59;5113004;28;20050;-74
2021/09/23 10:01:46;;;;;;;6.70;2.47;;;;;;;16.80;59.72;100755.28;5113179;28;20543;-74
2021/09/23 10:04:18;;;;;;;4.45;2.30;;;;;;;16.70;58.71;100746.22;5113375;28;20426;-74
2021/09/23 10:06:47;;;;;;;6.07;2.72;;;;;;;16.80;60.08;100740.97;5113289;28;20509;-74
2021/09/23 10:09:17;;;;;;;6.10;2.90;;;;;;;16.83;60.19;100740.72;5113058;28;20067;-74
2021/09/23 10:11:48;;;;;;;7.57;3.10;;;;;;;16.91;61.41;100746.34;5113061;28;20405;-74
2021/09/23 10:14:18;;;;;;;4.57;2.45;;;;;;;16.95;57.36;100744.25;5113038;28;20039;-74
2021/09/23 10:16:47;;;;;;;5.57;2.60;;;;;;;16.83;58.31;100744.25;5112823;28;20138;-74
2021/09/23 10:19:18;;;;;;;5.90;2.60;;;;;;;16.81;57.52;100738.13;5112172;28;20332;-74
2021/09/23 10:21:46;;;;;;;6.63;2.90;;;;;;;16.70;59.55;100743.50;5111619;28;20142;-74
2021/09/23 10:24:15;;;;;;;6.90;3.05;;;;;;;16.85;59.74;100736.06;5111170;28;20123;-74
2021/09/23 10:26:48;;;;;;;6.65;2.90;;;;;;;17.03;59.82;100729.22;5111551;28;20043;-74
2021/09/23 10:29:18;;;;;;;5.23;3.07;;;;;;;16.81;59.60;100730.06;5111859;28;20052;-74
2021/09/23 10:31:46;;;;;;;5.80;2.90;;;;;;;17.04;60.32;100725.53;5111592;28;20059;-74
2021/09/23 10:34:17;;;;;;;7.22;2.88;;;;;;;17.28;59.86;100719.16;5111994;28;20089;-73
2021/09/23 10:36:47;;;;;;;5.47;2.53;;;;;;;17.28;58.46;100716.47;5111957;28;20054;-73
2021/09/23 10:39:17;;;;;;;5.65;2.25;;;;;;;17.29;55.59;100715.50;5112440;28;20044;-74
2021/09/23 10:41:46;;;;;;;5.47;2.15;;;;;;;17.28;55.94;100716.47;5112535;28;20055;-73
2021/09/23 10:44:17;;;;;;;5.65;2.47;;;;;;;17.37;56.71;100710.31;5112296;28;20118;-73
2021/09/23 10:46:45;;;;;;;7.05;3.00;;;;;;;17.57;58.41;100708.72;5112112;28;20044;-73
2021/09/23 10:49:15;;;;;;;5.93;2.78;;;;;;;17.62;58.24;100712.72;5115430;28;20478;-75
2021/09/23 10:51:46;;;;;;;7.18;2.88;;;;;;;17.36;58.10;100714.00;5116745;28;20091;-74
2021/09/23 10:54:17;;;;;;;6.60;2.88;;;;;;;17.28;57.57;100713.78;5116586;28;20054;-74
2021/09/23 10:56:47;;;;;;;7.63;3.10;;;;;;;17.20;58.49;100708.16;5116593;28;20044;-73
2021/09/23 10:59:16;;;;;;;7.57;3.58;;;;;;;17.03;59.72;100710.34;5116308;28;20070;-75
2021/09/23 11:01:45;;;;;;;8.05;3.10;;;;;;;17.07;59.23;100701.03;5116424;28;20092;-75
2021/09/23 11:04:28;;;;;;;7.93;3.13;;;;;;;17.21;59.71;100697.22;5116797;28;20044;-73
2021/09/23 11:07:00;;;;;;;8.32;3.40;;;;;;;17.30;59.61;100703.72;5116066;28;20040;-73
2021/09/23 11:09:29;;;;;;;6.45;2.95;;;;;;;17.33;59.14;100700.75;5116384;28;20062;-74
2021/09/23 11:11:59;;;;;;;6.35;2.80;;;;;;;17.30;59.11;100692.94;5116093;28;20043;-74
2021/09/23 11:14:29;;;;;;;7.07;3.58;;;;;;;17.49;59.21;100686.91;5116358;28;20051;-74
2021/09/23 11:16:59;;;;;;;8.18;3.13;;;;;;;17.38;58.86;100690.47;5115944;28;20196;-74
2021/09/23 11:19:28;;;;;;;4.72;2.25;;;;;;;17.32;57.00;100690.97;5116543;28;20048;-74
2021/09/23 11:21:59;;;;;;;6.10;2.72;;;;;;;17.36;56.33;100697.81;5115911;28;20044;-74
2021/09/23 11:24:28;;;;;;;6.03;2.88;;;;;;;17.41;57.60;100685.69;5116182;28;20454;-75
2021/09/23 11:26:57;;;;;;;9.18;2.92;;;;;;;17.40;57.31;100680.41;5115937;28;20078;-74
2021/09/23 11:29:26;;;;;;;4.63;2.65;;;;;;;17.32;58.32;100681.03;5115611;28;20058;-74